Etusivu
METAR-TAF:

METAR-TAF

Lentoasemat :

Community_Airport

Owosso, Michigan, Yhdysvallat

Leveyspiiri: 42-59-34N, Pituuspiiri: 084-08-20W, korkeus merenpinnasta: 224 m

Tämänhetkinen sää

Tämä raportti tehtiin 16 minuuttia sitten, kello 11.36 UTC
Tuuli 5 kn pohjoisesta/koillisesta
Lämpötila 4°C
Kosteus 100%
Ilmanpaine 1016 hPa
Näkyvyys: 8.0 km
Pilvistä 300 ft:n korkeudessa
utua

METAR: KRNP 011136Z AUTO 02005KT 5SM BR OVC003 04/04 A3001 RMK AO2 T00400035

Aika: 07:52 (11:52 UTC)


TAF: puuttuu

Säähavainnot ja -ennusteet yli 4000 lentoasemalta (METAR- ja TAF-raportit).

Käytössä olevat sääasemat on merkitty karttaan keltaisilla ja punaisilla pisteillä.

Aseta hiiri pisteen päälle nähdäksesi sääaseman nimen.

Klikkaa sitten nähdäksesi säähavainnot ja -ennusteet.

Kartan vaihtaminen: klikkaa mustalla rastilla varustettuja vihreitä pisteitä, niin voit zoomata sisään; viivalla varustettua vihreää pistettä, niin voit zoomata ulos tai vihreitä nuolia, niin pääset viereisille kartoille.


METAR-TAF: